Time;durP1;ratioP1;P1;durP2;ratioP2;P2;SDS_P1;SDS_P2;PMS_P1;PMS_P2;Temp;Humidity;BMP_temperature;BMP_pressure;BME280_temperature;BME280_humidity;BME280_pressure;Samples;Min_cycle;Max_cycle;Signal;HPM_P1;HPM_P2
2022/04/14 04:01:53;;;;;;;12.13;8.10;;;8.00;96.30;;;;;;5280694;23;20500;-76
2022/04/14 04:04:19;;;;;;;9.47;5.93;;;7.80;96.30;;;;;;4967063;28;20437;-77
2022/04/14 04:06:45;;;;;;;14.73;7.07;;;7.80;96.30;;;;;;4992687;28;20178;-78
2022/04/14 04:09:11;;;;;;;10.20;7.60;;;7.90;96.30;;;;;;4969673;28;20202;-78
2022/04/14 04:11:37;;;;;;;11.37;8.70;;;7.90;96.30;;;;;;4974496;28;20514;-79
2022/04/14 04:14:02;;;;;;;14.67;9.93;;;7.90;96.30;;;;;;4982658;28;20444;-76
2022/04/14 04:16:28;;;;;;;14.43;6.90;;;8.00;96.30;;;;;;4977991;28;20582;-78
2022/04/14 04:18:53;;;;;;;17.10;8.23;;;8.00;96.30;;;;;;4974978;28;20269;-77
2022/04/14 04:21:19;;;;;;;10.60;7.80;;;7.90;96.30;;;;;;4975510;28;20197;-76
2022/04/14 04:23:44;;;;;;;14.67;8.60;;;7.90;96.30;;;;;;4958399;28;20209;-77
2022/04/14 04:26:10;;;;;;;10.93;7.00;;;7.90;96.30;;;;;;4963280;28;20716;-78
2022/04/14 04:28:35;;;;;;;11.70;7.67;;;7.90;96.30;;;;;;4973928;28;20208;-77
2022/04/14 04:31:01;;;;;;;13.80;7.20;;;7.90;96.30;;;;;;4959013;28;20257;-77
2022/04/14 04:33:26;;;;;;;15.87;13.07;;;7.70;96.30;;;;;;4981620;28;20566;-76
2022/04/14 04:35:52;;;;;;;19.30;15.27;;;7.50;96.30;;;;;;4974022;28;20233;-78
2022/04/14 04:38:19;;;;;;;12.60;9.27;;;7.50;96.30;;;;;;4957180;28;20209;-76
2022/04/14 04:40:44;;;;;;;12.77;7.80;;;7.50;96.30;;;;;;4973840;28;20194;-77
2022/04/14 04:43:10;;;;;;;12.10;7.80;;;7.50;96.30;;;;;;4959815;28;20453;-79
2022/04/14 04:45:36;;;;;;;18.80;9.30;;;7.60;96.30;;;;;;4973674;28;20182;-76
2022/04/14 04:48:02;;;;;;;20.50;12.73;;;7.60;96.30;;;;;;4973558;28;20181;-76
2022/04/14 04:50:28;;;;;;;22.80;14.73;;;7.70;96.30;;;;;;4973709;28;20306;-77
2022/04/14 04:52:54;;;;;;;9.83;6.57;;;7.70;96.30;;;;;;4978357;28;20485;-78
2022/04/14 04:55:19;;;;;;;13.93;6.40;;;7.60;96.30;;;;;;4965893;28;20661;-78
2022/04/14 04:57:45;;;;;;;8.10;6.13;;;7.40;96.30;;;;;;4959257;28;20217;-79
2022/04/14 05:00:11;;;;;;;10.10;6.30;;;7.40;96.30;;;;;;4974431;28;20178;-81
2022/04/14 10:28:28;;;;;;;17.20;14.00;;;17.90;92.60;;;;;;5746491;23;20984;-73
2022/04/14 10:30:56;;;;;;;22.30;12.20;;;17.90;92.00;;;;;;5000907;28;20526;-74
2022/04/14 10:33:22;;;;;;;19.30;13.07;;;17.70;93.30;;;;;;5014728;28;20455;-73
2022/04/14 10:35:49;;;;;;;20.07;12.90;;;17.50;92.80;;;;;;5014872;28;20443;-74
2022/04/14 10:38:24;;;;;;;17.40;12.50;;;17.40;94.50;;;;;;5014447;28;20415;-74
2022/04/14 10:41:00;;;;;;;19.70;14.23;;;16.90;94.20;;;;;;5014696;28;20443;-74
2022/04/14 10:43:26;;;;;;;18.13;13.37;;;17.00;96.30;;;;;;5014356;28;20404;-76
2022/04/14 10:45:55;;;;;;;19.20;12.87;;;17.30;96.30;;;;;;4996135;28;20420;-74
2022/04/14 10:48:35;;;;;;;16.97;13.00;;;18.10;96.30;;;;;;5014230;28;20424;-75
2022/04/14 10:51:19;;;;;;;16.40;12.60;;;18.30;94.10;;;;;;5014333;28;20431;-74
2022/04/14 10:53:51;;;;;;;15.87;13.07;;;18.80;96.00;;;;;;5026529;28;20420;-74
2022/04/14 10:56:34;;;;;;;24.30;14.00;;;19.30;91.20;;;;;;5002439;28;20858;-75
2022/04/14 10:59:04;;;;;;;14.13;11.67;;;19.30;91.30;;;;;;4991286;28;20988;-75
2022/04/14 11:01:45;;;;;;;15.60;12.73;;;19.20;89.30;;;;;;4971565;28;20444;-75
2022/04/14 11:04:28;;;;;;;18.20;12.50;;;19.00;96.30;;;;;;4994634;28;20920;-75
2022/04/14 11:07:01;;;;;;;21.23;13.43;;;19.90;95.70;;;;;;4994702;28;20404;-75
2022/04/14 11:09:39;;;;;;;14.53;11.63;;;19.90;95.70;;;;;;4994423;28;20409;-74
2022/04/14 11:12:27;;;;;;;13.40;8.63;;;19.80;87.80;;;;;;4994546;28;20464;-75
2022/04/14 11:15:04;;;;;;;13.60;8.53;;;19.50;88.70;;;;;;4994675;28;20409;-75
2022/04/14 11:17:37;;;;;;;13.30;8.40;;;19.40;91.10;;;;;;4997589;28;20421;-75
2022/04/14 11:20:13;;;;;;;10.70;7.00;;;19.10;91.20;;;;;;4993736;28;20468;-75
2022/04/14 11:23:08;;;;;;;9.60;7.67;;;18.90;91.80;;;;;;4981116;28;20417;-75
2022/04/14 11:25:46;;;;;;;9.40;7.97;;;18.90;89.00;;;;;;4994018;28;20441;-75
2022/04/14 11:28:32;;;;;;;10.03;7.77;;;18.60;91.40;;;;;;4997245;28;20431;-75
2022/04/14 11:31:02;;;;;;;11.47;7.80;;;18.50;91.40;;;;;;5013817;28;20490;-75
2022/04/14 11:33:28;;;;;;;8.90;7.87;;;18.80;92.40;;;;;;5013591;28;20819;-75
2022/04/14 11:35:54;;;;;;;11.80;8.80;;;18.80;93.10;;;;;;5005412;28;20412;-75
2022/04/14 11:38:51;;;;;;;17.20;8.13;;;19.00;93.30;;;;;;4994473;28;20186;-75
2022/04/14 11:41:41;;;;;;;10.30;8.70;;;19.30;94.60;;;;;;4994008;28;20421;-75
2022/04/14 11:44:15;;;;;;;13.17;10.00;;;19.00;94.50;;;;;;4994011;28;20917;-75
2022/04/14 11:46:43;;;;;;;12.80;11.37;;;19.10;96.30;;;;;;4993778;28;20405;-75
2022/04/14 11:49:11;;;;;;;14.80;10.23;;;19.90;95.10;;;;;;4993660;28;20912;-75
2022/04/14 11:51:44;;;;;;;13.30;9.40;;;20.40;95.90;;;;;;4998147;28;20432;-75
2022/04/14 11:54:10;;;;;;;14.83;10.50;;;21.00;91.20;;;;;;5005129;28;20444;-75
2022/04/14 11:56:35;;;;;;;13.47;9.90;;;20.50;93.20;;;;;;5013348;28;20419;-75
2022/04/14 11:59:02;;;;;;;13.10;9.00;;;20.00;92.10;;;;;;5012994;28;20419;-75
2022/04/14 12:01:28;;;;;;;16.83;9.80;;;20.10;93.20;;;;;;5013351;28;20189;-75
2022/04/14 12:03:53;;;;;;;12.57;8.77;;;19.90;93.30;;;;;;5013002;28;20908;-75
2022/04/14 12:06:19;;;;;;;15.00;10.17;;;19.80;94.40;;;;;;4994354;28;20255;-75
2022/04/14 12:08:55;;;;;;;16.33;10.73;;;18.90;91.10;;;;;;4995621;28;20181;-75
2022/04/14 12:11:21;;;;;;;15.50;9.77;;;18.50;96.30;;;;;;4992981;28;20227;-74
2022/04/14 12:13:47;;;;;;;13.90;9.90;;;18.70;96.30;;;;;;5000973;28;20412;-75
2022/04/14 12:16:14;;;;;;;13.70;10.50;;;18.50;96.30;;;;;;4984397;28;20741;-75
2022/04/14 12:18:47;;;;;;;12.93;9.83;;;18.60;96.30;;;;;;4987947;28;20481;-75
2022/04/14 12:21:23;;;;;;;12.73;9.50;;;18.90;96.30;;;;;;4975584;28;20445;-75
2022/04/14 12:23:51;;;;;;;13.20;9.40;;;18.70;96.30;;;;;;4999914;28;20411;-75
2022/04/14 12:26:17;;;;;;;10.63;8.90;;;18.50;96.30;;;;;;5012312;28;20411;-75
2022/04/14 12:28:45;;;;;;;10.00;8.87;;;18.30;96.30;;;;;;5012101;28;20439;-75
2022/04/14 12:31:16;;;;;;;13.93;9.30;;;18.20;96.30;;;;;;5012344;28;20475;-74
2022/04/14 12:33:53;;;;;;;10.17;8.50;;;18.10;96.30;;;;;;5012596;28;20454;-74
2022/04/14 12:36:18;;;;;;;11.07;8.37;;;18.10;96.30;;;;;;5003502;28;20480;-74
2022/04/14 12:38:46;;;;;;;9.80;7.43;;;17.90;96.30;;;;;;5010613;28;20953;-74
2022/04/14 12:41:19;;;;;;;12.23;8.50;;;17.90;96.30;;;;;;5009740;28;20213;-75
2022/04/14 12:43:47;;;;;;;10.10;8.30;;;17.80;96.30;;;;;;5004146;28;20944;-75
2022/04/14 12:46:27;;;;;;;9.70;8.37;;;17.90;96.30;;;;;;4993142;28;20996;-75
2022/04/14 12:49:09;;;;;;;8.83;6.47;;;17.90;96.30;;;;;;4992926;28;20404;-75
2022/04/14 12:51:39;;;;;;;18.43;7.33;;;17.90;96.30;;;;;;5004540;28;20446;-75
2022/04/14 12:54:07;;;;;;;9.50;6.97;;;17.90;96.30;;;;;;4995180;28;20416;-74
2022/04/14 12:56:35;;;;;;;10.57;7.60;;;17.70;96.30;;;;;;5012840;28;20415;-74
2022/04/14 12:59:14;;;;;;;11.00;7.33;;;17.80;96.30;;;;;;5012515;28;20455;-74
2022/04/14 13:01:56;;;;;;;9.50;6.87;;;17.80;96.30;;;;;;5012961;28;20428;-74
2022/04/14 13:04:43;;;;;;;8.87;7.10;;;17.90;96.30;;;;;;4998390;28;20510;-74
2022/04/14 13:07:13;;;;;;;11.40;7.30;;;18.00;96.30;;;;;;5011668;28;20769;-74
2022/04/14 13:09:56;;;;;;;10.23;6.33;;;18.00;96.30;;;;;;5012913;28;20415;-74
2022/04/14 13:12:37;;;;;;;15.87;5.60;;;17.80;96.30;;;;;;5012300;28;20467;-75
2022/04/14 13:15:03;;;;;;;10.50;6.67;;;17.20;96.30;;;;;;4994820;28;20411;-74
2022/04/14 13:17:28;;;;;;;12.27;6.53;;;17.10;96.30;;;;;;4995645;28;20420;-74
2022/04/14 13:19:55;;;;;;;7.53;6.50;;;16.90;96.30;;;;;;4992090;28;20184;-74
2022/04/14 13:22:21;;;;;;;8.63;6.10;;;16.60;96.30;;;;;;4993531;28;20209;-75
2022/04/14 13:24:47;;;;;;;9.40;6.37;;;16.40;96.30;;;;;;4992147;28;20413;-74
2022/04/14 13:27:12;;;;;;;7.67;5.63;;;16.40;96.30;;;;;;4992538;28;20423;-74
2022/04/14 13:29:39;;;;;;;9.97;6.17;;;16.50;96.30;;;;;;4992295;28;20256;-73
2022/04/14 13:32:05;;;;;;;13.00;6.73;;;16.70;96.30;;;;;;4992378;28;20209;-74
2022/04/14 13:34:30;;;;;;;7.10;6.10;;;17.00;96.30;;;;;;4992500;28;20412;-73
2022/04/14 13:36:58;;;;;;;9.20;5.47;;;17.10;96.30;;;;;;4993306;28;20173;-74
2022/04/14 13:39:24;;;;;;;7.70;5.60;;;17.00;96.30;;;;;;4998299;28;20609;-74
2022/04/14 13:41:49;;;;;;;8.27;5.90;;;17.00;96.30;;;;;;4992695;28;20460;-73
2022/04/14 13:44:15;;;;;;;8.77;4.93;;;16.70;96.30;;;;;;4992351;28;20307;-75
2022/04/14 13:46:41;;;;;;;6.50;5.10;;;16.50;96.30;;;;;;4994025;28;20743;-74
2022/04/14 13:49:06;;;;;;;7.53;4.57;;;16.40;96.30;;;;;;4974789;28;20174;-74
2022/04/14 13:51:34;;;;;;;11.77;5.07;;;16.70;96.30;;;;;;4972691;28;20201;-74
2022/04/14 13:53:59;;;;;;;11.77;5.67;;;16.60;96.30;;;;;;4992290;28;20177;-75
2022/04/14 13:56:26;;;;;;;10.77;4.70;;;16.60;96.30;;;;;;4992669;28;20393;-74
2022/04/14 13:58:51;;;;;;;15.00;5.40;;;16.50;96.30;;;;;;4992489;28;20273;-75
2022/04/14 14:01:17;;;;;;;10.70;4.50;;;16.30;96.30;;;;;;4992427;28;21145;-74
2022/04/14 14:03:42;;;;;;;9.57;4.60;;;16.10;96.30;;;;;;4992354;28;20188;-74
2022/04/14 14:06:08;;;;;;;5.80;4.73;;;16.10;96.30;;;;;;4993271;28;20684;-74
2022/04/14 14:08:33;;;;;;;9.13;5.20;;;16.10;96.30;;;;;;4995469;28;20231;-74
2022/04/14 14:10:59;;;;;;;7.03;4.33;;;16.20;96.30;;;;;;4993016;28;20197;-74
2022/04/14 14:13:25;;;;;;;7.60;5.50;;;16.30;96.30;;;;;;4991731;28;20240;-74
2022/04/14 14:15:51;;;;;;;6.90;4.40;;;16.40;96.30;;;;;;4991051;28;20173;-74
2022/04/14 14:18:16;;;;;;;6.33;4.40;;;16.60;96.30;;;;;;4978398;28;20205;-74
2022/04/14 14:20:44;;;;;;;10.40;4.40;;;17.00;96.30;;;;;;4994097;28;20450;-74
2022/04/14 14:23:10;;;;;;;6.17;4.40;;;17.30;96.30;;;;;;4993921;28;20236;-74
2022/04/14 14:25:38;;;;;;;5.77;4.23;;;17.70;96.30;;;;;;4995543;28;20439;-73
2022/04/14 14:28:04;;;;;;;8.30;5.00;;;18.00;96.30;;;;;;4995111;28;20783;-73
2022/04/14 14:30:30;;;;;;;6.03;5.10;;;18.00;96.30;;;;;;4994657;28;20256;-73
2022/04/14 14:32:55;;;;;;;10.53;4.47;;;17.90;96.30;;;;;;4995379;28;20561;-73
2022/04/14 14:35:21;;;;;;;6.70;4.47;;;17.80;96.30;;;;;;4997700;28;20704;-74
2022/04/14 14:37:47;;;;;;;4.17;3.33;;;17.70;96.30;;;;;;5003714;28;20249;-73
2022/04/14 14:40:14;;;;;;;7.43;4.23;;;17.70;96.30;;;;;;5006703;28;20177;-73
2022/04/14 14:42:39;;;;;;;4.80;3.23;;;17.70;96.30;;;;;;5017144;28;20169;-74
2022/04/14 14:45:07;;;;;;;6.97;3.17;;;17.90;96.30;;;;;;5000950;28;20475;-73
2022/04/14 14:47:32;;;;;;;8.87;3.67;;;18.10;96.30;;;;;;4994987;28;20190;-73
2022/04/14 14:49:58;;;;;;;10.10;4.17;;;17.60;96.30;;;;;;4995266;28;20470;-73
2022/04/14 14:52:23;;;;;;;5.87;4.23;;;17.40;96.30;;;;;;4995804;28;20716;-73
2022/04/14 14:54:49;;;;;;;6.90;4.00;;;17.30;96.30;;;;;;4994975;28;20170;-74
2022/04/14 14:57:14;;;;;;;5.90;4.10;;;17.20;96.30;;;;;;4977573;28;20204;-74
2022/04/14 14:59:40;;;;;;;6.77;3.57;;;17.40;96.30;;;;;;4999058;28;20551;-74
2022/04/14 15:02:05;;;;;;;7.90;3.97;;;17.40;96.30;;;;;;4994834;28;20781;-74
2022/04/14 15:04:31;;;;;;;8.50;3.73;;;17.00;96.30;;;;;;4977195;28;20677;-73
2022/04/14 15:06:57;;;;;;;5.63;3.90;;;16.80;96.30;;;;;;4994782;28;20173;-73
2022/04/14 15:09:23;;;;;;;6.87;3.97;;;16.40;96.30;;;;;;4994709;28;20431;-73
2022/04/14 15:11:48;;;;;;;5.77;3.70;;;16.50;96.30;;;;;;5003851;28;20329;-73
2022/04/14 15:14:15;;;;;;;6.20;3.90;;;16.50;96.30;;;;;;5004642;28;20186;-74
2022/04/14 15:16:41;;;;;;;7.57;4.40;;;16.70;96.30;;;;;;4994594;28;20174;-74
2022/04/14 15:19:07;;;;;;;3.73;3.40;;;16.90;96.30;;;;;;5008496;28;20830;-74
2022/04/14 15:21:36;;;;;;;14.90;4.37;;;16.70;96.30;;;;;;5002870;28;21002;-73
2022/04/14 15:24:01;;;;;;;6.53;3.90;;;16.40;96.30;;;;;;4994380;28;20401;-73
2022/04/14 15:26:27;;;;;;;4.43;3.73;;;16.40;96.30;;;;;;4993864;28;20417;-73
2022/04/14 15:28:53;;;;;;;6.60;3.80;;;16.30;96.30;;;;;;4994067;28;20219;-74
2022/04/14 15:31:19;;;;;;;5.57;3.53;;;16.30;96.30;;;;;;4995428;28;20190;-73
2022/04/14 15:33:45;;;;;;;5.30;4.07;;;16.40;96.30;;;;;;4984528;28;20206;-74
2022/04/14 15:36:12;;;;;;;4.57;4.00;;;16.20;96.30;;;;;;5009158;28;20881;-74
2022/04/14 15:38:38;;;;;;;6.90;4.23;;;16.10;96.30;;;;;;4993347;28;20401;-73
2022/04/14 15:41:08;;;;;;;6.70;4.10;;;16.10;96.30;;;;;;4991960;28;20483;-73
2022/04/14 15:43:35;;;;;;;4.73;4.13;;;15.80;96.30;;;;;;4999314;28;20900;-73
2022/04/14 15:46:02;;;;;;;5.43;4.33;;;15.70;96.30;;;;;;5013151;28;20415;-73
2022/04/14 15:48:27;;;;;;;5.90;4.67;;;15.60;96.30;;;;;;5019886;28;20466;-73
2022/04/14 15:50:53;;;;;;;6.27;4.17;;;15.60;96.30;;;;;;5013363;28;20515;-73
2022/04/14 15:53:19;;;;;;;9.80;4.50;;;15.70;96.30;;;;;;5013051;28;20212;-73
2022/04/14 15:55:46;;;;;;;5.90;3.67;;;15.70;96.30;;;;;;5013074;28;20165;-73
2022/04/14 15:58:14;;;;;;;6.07;3.87;;;15.60;96.30;;;;;;5012438;28;20416;-73
2022/04/14 16:00:39;;;;;;;9.30;4.03;;;15.60;96.30;;;;;;5012909;28;20939;-73
2022/04/14 16:03:05;;;;;;;4.43;3.73;;;15.40;96.30;;;;;;4998171;28;20416;-73
2022/04/14 16:05:31;;;;;;;13.47;4.37;;;15.20;96.30;;;;;;5012055;28;20172;-74
2022/04/14 16:07:58;;;;;;;5.07;3.70;;;15.00;96.30;;;;;;4988576;28;20469;-74
2022/04/14 16:13:09;;;;;;;4.70;3.00;;;14.80;96.30;;;;;;5011987;28;20493;-74
2022/04/14 16:15:35;;;;;;;5.10;3.23;;;14.70;96.30;;;;;;4991336;28;20832;-74
2022/04/14 16:18:01;;;;;;;5.60;3.10;;;14.60;96.30;;;;;;4989612;28;20213;-74
2022/04/14 16:20:27;;;;;;;3.80;2.50;;;14.60;96.30;;;;;;4991514;28;20189;-74
2022/04/14 16:22:52;;;;;;;5.00;2.47;;;14.50;96.30;;;;;;4991920;28;20851;-73
2022/04/14 16:25:18;;;;;;;2.90;2.60;;;14.50;96.30;;;;;;4975009;28;20564;-73
2022/04/14 16:27:44;;;;;;;3.40;2.77;;;14.50;96.30;;;;;;5004073;28;20217;-73
2022/04/14 16:30:10;;;;;;;4.70;2.97;;;14.40;96.30;;;;;;5010975;28;20207;-73
2022/04/14 16:32:37;;;;;;;10.33;2.93;;;14.30;96.30;;;;;;5012097;28;20959;-74
2022/04/14 16:35:04;;;;;;;10.40;3.40;;;14.30;96.30;;;;;;5003031;28;20515;-73
2022/04/14 16:37:30;;;;;;;4.40;2.40;;;14.20;96.30;;;;;;4976953;28;20432;-73
2022/04/14 16:39:55;;;;;;;5.10;2.57;;;14.20;96.30;;;;;;4991986;28;20424;-75
2022/04/14 16:42:21;;;;;;;4.53;2.80;;;14.10;96.30;;;;;;4993570;28;20209;-74
2022/04/14 16:44:47;;;;;;;2.90;2.57;;;14.00;96.30;;;;;;5008084;28;20184;-74
2022/04/14 16:47:12;;;;;;;2.67;1.80;;;14.00;96.30;;;;;;5013194;28;20442;-73
2022/04/14 16:49:41;;;;;;;6.77;2.40;;;13.90;96.30;;;;;;5016797;28;20291;-73
2022/04/14 16:52:08;;;;;;;2.80;2.20;;;13.80;96.30;;;;;;5012401;28;20570;-73
2022/04/14 16:54:34;;;;;;;3.10;1.93;;;13.60;96.30;;;;;;5011936;28;20412;-73
2022/04/14 16:57:01;;;;;;;2.43;1.90;;;13.60;96.30;;;;;;5012296;28;20427;-75
2022/04/14 16:59:26;;;;;;;4.53;1.83;;;13.40;96.30;;;;;;5004146;28;20251;-73
2022/04/14 17:01:52;;;;;;;4.03;1.53;;;13.30;96.30;;;;;;4991964;28;20476;-76
2022/04/14 17:04:17;;;;;;;1.40;1.10;;;13.20;96.30;;;;;;4992747;28;20186;-76
2022/04/14 17:06:43;;;;;;;4.73;1.50;;;13.10;96.30;;;;;;4998788;28;20193;-75
2022/04/14 17:09:09;;;;;;;1.97;1.13;;;13.00;96.30;;;;;;4991922;28;20185;-76
2022/04/14 17:11:35;;;;;;;2.93;1.40;;;12.90;96.30;;;;;;4992536;28;20198;-77
2022/04/14 17:14:01;;;;;;;3.23;1.77;;;12.80;96.30;;;;;;4995672;28;20204;-76
2022/04/14 17:16:27;;;;;;;3.20;1.93;;;12.70;96.30;;;;;;4996324;28;20443;-76
2022/04/14 17:18:53;;;;;;;3.40;2.20;;;12.60;96.30;;;;;;4994629;28;20451;-75
2022/04/14 17:21:18;;;;;;;6.53;2.40;;;12.50;96.30;;;;;;4993563;28;20289;-76
2022/04/14 17:26:28;;;;;;;6.13;2.20;;;12.20;96.30;;;;;;4995731;28;20176;-78
2022/04/14 17:28:53;;;;;;;2.97;2.47;;;12.20;96.30;;;;;;4995168;28;20444;-76
2022/04/14 17:31:19;;;;;;;3.00;2.70;;;12.10;96.30;;;;;;4993594;28;20284;-78
2022/04/14 17:33:45;;;;;;;4.43;2.10;;;12.00;96.30;;;;;;4980716;28;20200;-78
2022/04/14 17:36:10;;;;;;;5.90;2.70;;;11.90;96.30;;;;;;4977334;28;20165;-77
2022/04/14 17:38:36;;;;;;;2.60;2.40;;;11.80;96.30;;;;;;4978847;28;20169;-79
2022/04/14 18:27:41;;;;;;;4.73;4.33;;;;;;;;;;5402761;23;20494;-73
2022/04/14 18:30:07;;;;;;;6.17;4.77;;;11.20;96.30;;;;;;4996424;28;21325;-76
2022/04/14 18:32:34;;;;;;;11.27;5.30;;;;;;;;;;5009852;28;20469;-73
2022/04/14 18:35:01;;;;;;;5.10;4.40;;;11.10;96.30;;;;;;5013130;28;20419;-75
2022/04/14 18:37:27;;;;;;;5.43;4.93;;;;;;;;;;5014526;28;20428;-74
2022/04/14 18:39:53;;;;;;;6.50;4.93;;;11.10;96.30;;;;;;5014872;28;20766;-71
2022/04/14 18:42:19;;;;;;;5.10;4.70;;;11.00;96.30;;;;;;5014908;28;20478;-72
2022/04/14 18:44:44;;;;;;;7.03;4.80;;;10.90;96.30;;;;;;5014662;28;20931;-73
2022/04/14 18:47:09;;;;;;;5.77;5.27;;;10.90;96.30;;;;;;5014623;28;20260;-73
2022/04/14 18:49:35;;;;;;;9.90;5.53;;;10.90;96.30;;;;;;5014419;28;20645;-73
2022/04/14 18:52:00;;;;;;;5.17;4.67;;;10.80;96.30;;;;;;5014699;28;20206;-73
2022/04/14 18:54:26;;;;;;;5.90;4.80;;;;;;;;;;5014537;28;20244;-75
2022/04/14 18:56:52;;;;;;;4.97;4.57;;;10.80;96.30;;;;;;5014434;28;20180;-73
2022/04/14 18:59:17;;;;;;;5.50;5.00;;;10.80;96.30;;;;;;5014230;28;20177;-72
2022/04/14 19:01:43;;;;;;;5.27;4.77;;;10.80;96.30;;;;;;5014395;28;20197;-73
2022/04/14 19:04:09;;;;;;;5.20;4.80;;;;;;;;;;5014501;28;20609;-72
2022/04/14 19:06:34;;;;;;;5.40;4.90;;;10.70;96.30;;;;;;5013681;28;20209;-71
2022/04/14 19:09:00;;;;;;;7.00;6.27;;;10.70;96.30;;;;;;5013999;28;20234;-71
2022/04/14 19:11:26;;;;;;;6.60;5.40;;;10.80;96.30;;;;;;5013698;28;20286;-73
2022/04/14 19:13:51;;;;;;;6.67;5.97;;;10.70;96.30;;;;;;5004036;28;20576;-73
2022/04/14 19:16:17;;;;;;;6.40;5.80;;;;;;;;;;4994748;28;20188;-74
2022/04/14 19:18:42;;;;;;;8.40;7.30;;;10.70;96.30;;;;;;4994314;28;20172;-74
2022/04/14 19:21:08;;;;;;;8.93;8.03;;;10.70;96.30;;;;;;4994433;28;20217;-75
2022/04/14 19:23:34;;;;;;;9.90;8.03;;;10.70;96.30;;;;;;4994493;28;20253;-76
2022/04/14 19:25:59;;;;;;;8.67;7.87;;;10.70;96.30;;;;;;4994304;28;20660;-78
2022/04/14 19:28:25;;;;;;;8.93;6.87;;;10.70;96.30;;;;;;4995575;28;20280;-78
2022/04/14 19:30:51;;;;;;;7.93;7.20;;;10.70;96.30;;;;;;4995045;28;20240;-79
2022/04/14 19:33:16;;;;;;;9.30;8.17;;;10.70;96.30;;;;;;4977582;28;20198;-78
2022/04/14 19:35:42;;;;;;;9.93;9.00;;;10.70;96.30;;;;;;5009173;28;20177;-75
2022/04/14 19:38:08;;;;;;;9.80;8.00;;;10.70;96.30;;;;;;5012714;28;20169;-75
2022/04/14 19:40:34;;;;;;;9.93;8.87;;;;;;;;;;5013999;28;20243;-76
2022/04/14 19:42:59;;;;;;;7.30;6.70;;;10.70;96.30;;;;;;5013830;28;20451;-76
2022/04/14 19:45:27;;;;;;;9.20;7.67;;;10.60;96.30;;;;;;5013763;28;20205;-75
2022/04/14 19:47:53;;;;;;;9.33;7.33;;;10.60;96.30;;;;;;5013375;28;20177;-76
2022/04/14 19:50:18;;;;;;;7.60;6.90;;;10.60;96.30;;;;;;5013587;28;20416;-77
2022/04/14 19:52:44;;;;;;;8.03;7.27;;;10.60;96.30;;;;;;5009990;28;20452;-75
2022/04/14 19:55:12;;;;;;;9.10;8.10;;;10.60;96.30;;;;;;4993911;28;20173;-75
2022/04/14 19:57:39;;;;;;;12.97;7.40;;;10.50;96.30;;;;;;4976236;28;20653;-75
2022/04/14 20:00:10;;;;;;;7.80;7.10;;;10.50;96.30;;;;;;4993912;28;20887;-77
2022/04/14 20:02:40;;;;;;;8.47;7.63;;;10.50;96.30;;;;;;4993589;28;20435;-75
2022/04/14 20:05:06;;;;;;;8.70;6.13;;;10.50;96.30;;;;;;4976228;28;20794;-75
2022/04/14 20:07:34;;;;;;;7.87;7.07;;;10.50;96.30;;;;;;4993371;28;20424;-75
2022/04/14 20:10:00;;;;;;;7.53;6.83;;;10.50;96.30;;;;;;4993544;28;20752;-75
2022/04/14 20:12:25;;;;;;;7.93;6.67;;;10.50;96.30;;;;;;4993452;28;20468;-75
2022/04/14 20:14:52;;;;;;;5.03;4.60;;;10.50;96.30;;;;;;4993680;28;20182;-79
2022/04/14 20:17:18;;;;;;;6.23;5.63;;;;;;;;;;4976029;28;20261;-79
2022/04/14 20:19:44;;;;;;;5.03;4.50;;;10.40;96.30;;;;;;4993803;28;20420;-79
2022/04/14 20:22:09;;;;;;;6.73;4.97;;;10.30;96.30;;;;;;4994457;28;20436;-79
2022/04/14 20:24:35;;;;;;;7.83;4.87;;;10.30;96.30;;;;;;4994033;28;20717;-78
2022/04/14 20:27:00;;;;;;;5.47;4.80;;;10.20;96.30;;;;;;4993893;28;20188;-79
2022/04/14 20:29:26;;;;;;;6.67;4.47;;;10.20;96.30;;;;;;4975861;28;20579;-78
2022/04/14 20:31:52;;;;;;;5.27;4.83;;;10.10;96.30;;;;;;4993382;28;20224;-79
2022/04/14 20:34:18;;;;;;;4.67;4.27;;;;;;;;;;4975767;28;20325;-79
2022/04/14 20:36:43;;;;;;;5.50;5.00;;;9.80;96.30;;;;;;4993519;28;20564;-78
2022/04/14 20:39:09;;;;;;;4.73;4.33;;;;;;;;;;4994291;28;20185;-78
2022/04/14 20:41:35;;;;;;;5.40;3.93;;;9.90;96.30;;;;;;4978104;28;20204;-79
2022/04/14 20:44:01;;;;;;;4.33;3.93;;;9.80;96.30;;;;;;4996294;28;20413;-79
2022/04/14 20:46:26;;;;;;;5.23;3.30;;;9.70;96.30;;;;;;4995220;28;20201;-79
2022/04/14 20:48:52;;;;;;;3.73;3.43;;;9.70;96.30;;;;;;4995802;28;20436;-80
2022/04/14 20:51:17;;;;;;;3.53;3.23;;;9.80;96.30;;;;;;4978694;28;20209;-79
2022/04/14 20:53:43;;;;;;;4.00;3.70;;;;;;;;;;5009851;28;20220;-78
2022/04/14 20:56:09;;;;;;;5.10;4.50;;;9.80;96.30;;;;;;5015054;28;20629;-79
2022/04/14 20:58:35;;;;;;;5.40;4.37;;;;;;;;;;5015792;28;20506;-78
2022/04/14 21:01:00;;;;;;;4.50;4.10;;;9.80;96.30;;;;;;5015376;28;20827;-79
2022/04/14 21:03:26;;;;;;;4.10;3.70;;;9.90;96.30;;;;;;4996843;28;20632;-78
2022/04/14 21:05:51;;;;;;;4.63;3.87;;;9.90;96.30;;;;;;4996479;28;20176;-78
2022/04/14 21:08:17;;;;;;;5.63;4.00;;;9.90;96.30;;;;;;5013797;28;20200;-77
2022/04/14 21:10:42;;;;;;;4.30;3.90;;;9.90;96.30;;;;;;4996037;28;20208;-79
2022/04/14 21:13:08;;;;;;;4.47;3.57;;;9.90;96.30;;;;;;5013862;28;20668;-79
2022/04/14 21:15:33;;;;;;;3.40;3.10;;;9.90;96.30;;;;;;4996303;28;20177;-78
2022/04/14 21:17:59;;;;;;;5.03;3.60;;;9.90;96.30;;;;;;5013491;28;20183;-78
2022/04/14 21:20:25;;;;;;;6.47;4.40;;;9.90;96.30;;;;;;4995839;28;20173;-78
2022/04/14 21:22:52;;;;;;;4.80;3.47;;;9.90;96.30;;;;;;5013541;28;20173;-78
2022/04/14 21:25:18;;;;;;;10.13;3.30;;;9.80;96.30;;;;;;4997227;28;20416;-77
2022/04/14 21:27:43;;;;;;;5.13;3.10;;;9.90;96.30;;;;;;4996822;28;20494;-77
2022/04/14 21:30:09;;;;;;;10.57;2.83;;;9.80;96.30;;;;;;5000929;28;20730;-79
2022/04/14 21:32:35;;;;;;;2.30;2.10;;;9.80;96.30;;;;;;5004403;28;20219;-78
2022/04/14 21:35:01;;;;;;;4.80;2.33;;;9.70;96.30;;;;;;5021056;28;20404;-77
2022/04/14 21:37:26;;;;;;;1.90;1.80;;;9.70;96.30;;;;;;5020491;28;20315;-76
2022/04/14 21:39:52;;;;;;;2.63;2.43;;;9.70;96.30;;;;;;5000291;28;20267;-77
2022/04/14 21:42:17;;;;;;;3.33;2.80;;;9.70;96.30;;;;;;5018121;28;20189;-79
2022/04/14 21:44:43;;;;;;;5.43;4.10;;;9.70;96.30;;;;;;5018131;28;20973;-79
2022/04/14 21:47:09;;;;;;;4.10;3.70;;;;;;;;;;5000839;28;20181;-78
2022/04/14 21:49:35;;;;;;;4.80;4.00;;;;;;;;;;5000163;28;20180;-78
2022/04/14 21:52:01;;;;;;;6.10;5.60;;;;;;;;;;5017605;28;20490;-77
2022/04/14 21:54:27;;;;;;;7.67;6.97;;;9.70;96.30;;;;;;5017948;28;20747;-79
2022/04/14 21:56:53;;;;;;;8.27;7.47;;;;;;;;;;5017303;28;20527;-77
2022/04/14 21:59:18;;;;;;;9.23;7.70;;;9.70;96.30;;;;;;4999508;28;20444;-78
2022/04/14 22:01:44;;;;;;;10.27;8.00;;;9.80;96.30;;;;;;5017010;28;20193;-79
2022/04/14 22:04:11;;;;;;;10.20;8.83;;;9.80;96.30;;;;;;4999449;28;20703;-78
2022/04/14 22:06:37;;;;;;;13.50;8.53;;;9.80;96.30;;;;;;5017195;28;20411;-78
2022/04/14 22:09:03;;;;;;;9.77;8.00;;;9.80;96.30;;;;;;5016989;28;20404;-78
2022/04/14 22:11:29;;;;;;;10.60;8.00;;;9.80;96.30;;;;;;5016592;28;20427;-79
2022/04/14 22:13:55;;;;;;;7.93;6.93;;;9.70;96.30;;;;;;5017222;28;20550;-79
2022/04/14 22:16:21;;;;;;;6.83;6.23;;;9.70;96.30;;;;;;5016832;28;20197;-78
2022/04/14 22:18:49;;;;;;;6.17;5.57;;;9.70;96.30;;;;;;5015998;28;20415;-78
2022/04/14 22:21:15;;;;;;;8.13;6.40;;;9.70;96.30;;;;;;5016255;28;20185;-78
2022/04/14 22:23:41;;;;;;;6.43;5.83;;;9.70;96.30;;;;;;5016230;28;20455;-78
2022/04/14 22:26:06;;;;;;;7.30;6.47;;;9.80;96.30;;;;;;4998454;28;20984;-78
2022/04/14 22:28:32;;;;;;;7.47;6.77;;;9.80;96.30;;;;;;5016029;28;20267;-78
2022/04/14 22:30:57;;;;;;;8.60;7.80;;;9.80;96.30;;;;;;5016126;28;20207;-77
2022/04/14 22:33:23;;;;;;;8.70;7.80;;;9.80;96.30;;;;;;5015985;28;20215;-78
2022/04/14 22:35:50;;;;;;;7.30;6.60;;;9.80;96.30;;;;;;5016158;28;20173;-78
2022/04/14 22:38:16;;;;;;;5.73;5.23;;;9.80;96.30;;;;;;4997949;28;20177;-78
2022/04/14 22:40:42;;;;;;;5.30;4.67;;;;;;;;;;5014809;28;20489;-78
2022/04/14 22:43:08;;;;;;;4.37;3.73;;;9.70;96.30;;;;;;5015769;28;20181;-79
2022/04/14 22:45:33;;;;;;;3.90;3.30;;;9.60;96.30;;;;;;5015606;28;20183;-79
2022/04/14 22:47:59;;;;;;;4.70;3.40;;;9.60;96.30;;;;;;4997773;28;20656;-77
2022/04/14 22:50:25;;;;;;;7.77;3.57;;;9.60;96.30;;;;;;4997913;28;20260;-77
2022/04/14 22:52:51;;;;;;;6.30;4.30;;;9.50;96.30;;;;;;4997664;28;20208;-77
2022/04/14 22:55:18;;;;;;;6.30;4.90;;;9.60;96.30;;;;;;5015042;28;20192;-78
2022/04/14 22:57:47;;;;;;;5.47;3.67;;;9.60;96.30;;;;;;5014944;28;20958;-78
2022/04/14 23:00:15;;;;;;;3.63;3.23;;;9.50;96.30;;;;;;5015005;28;20491;-77
2022/04/14 23:02:41;;;;;;;4.33;3.20;;;;;;;;;;4997362;28;21001;-78
2022/04/14 23:05:07;;;;;;;4.50;3.17;;;9.60;96.30;;;;;;5014631;28;20507;-78
2022/04/14 23:07:34;;;;;;;3.77;3.27;;;9.60;96.30;;;;;;5014366;28;20264;-77
2022/04/14 23:10:00;;;;;;;4.23;3.13;;;9.60;96.30;;;;;;4996953;28;20181;-77